sensor_id;sensor_type;location;lat;lon;timestamp;P1;durP1;ratioP1;P2;durP2;ratioP2
25870;SDS011;13689;48.590;7.752;2023-07-20T00:01:51;3.25;;;1.50;;
25870;SDS011;13689;48.590;7.752;2023-07-20T00:04:17;3.20;;;1.60;;
25870;SDS011;13689;48.590;7.752;2023-07-20T00:06:42;3.25;;;1.80;;
25870;SDS011;13689;48.590;7.752;2023-07-20T00:09:08;5.82;;;1.80;;
25870;SDS011;13689;48.590;7.752;2023-07-20T00:11:35;2.67;;;1.85;;
25870;SDS011;13689;48.590;7.752;2023-07-20T00:14:05;4.18;;;1.80;;
25870;SDS011;13689;48.590;7.752;2023-07-20T00:16:30;3.13;;;1.60;;
25870;SDS011;13689;48.590;7.752;2023-07-20T00:18:56;3.97;;;1.55;;
25870;SDS011;13689;48.590;7.752;2023-07-20T00:21:22;4.85;;;1.77;;
25870;SDS011;13689;48.590;7.752;2023-07-20T00:23:47;3.60;;;1.40;;
25870;SDS011;13689;48.590;7.752;2023-07-20T00:26:13;7.13;;;1.73;;
25870;SDS011;13689;48.590;7.752;2023-07-20T00:28:38;3.58;;;1.90;;
25870;SDS011;13689;48.590;7.752;2023-07-20T00:31:04;3.60;;;1.52;;
25870;SDS011;13689;48.590;7.752;2023-07-20T00:33:30;2.95;;;1.73;;
25870;SDS011;13689;48.590;7.752;2023-07-20T00:35:55;4.80;;;1.80;;
25870;SDS011;13689;48.590;7.752;2023-07-20T00:38:21;2.85;;;1.58;;
25870;SDS011;13689;48.590;7.752;2023-07-20T00:40:47;2.33;;;1.45;;
25870;SDS011;13689;48.590;7.752;2023-07-20T00:43:14;2.72;;;1.50;;
25870;SDS011;13689;48.590;7.752;2023-07-20T00:45:40;2.33;;;1.50;;
25870;SDS011;13689;48.590;7.752;2023-07-20T00:48:06;4.55;;;1.63;;
25870;SDS011;13689;48.590;7.752;2023-07-20T00:50:32;4.10;;;1.83;;
25870;SDS011;13689;48.590;7.752;2023-07-20T00:52:59;5.63;;;1.95;;
25870;SDS011;13689;48.590;7.752;2023-07-20T00:55:25;4.82;;;1.50;;
25870;SDS011;13689;48.590;7.752;2023-07-20T00:57:52;6.57;;;1.65;;
25870;SDS011;13689;48.590;7.752;2023-07-20T01:00:18;3.00;;;1.75;;
25870;SDS011;13689;48.590;7.752;2023-07-20T01:02:44;5.32;;;1.88;;
25870;SDS011;13689;48.590;7.752;2023-07-20T01:05:10;4.53;;;1.95;;
25870;SDS011;13689;48.590;7.752;2023-07-20T01:07:42;3.40;;;1.48;;
25870;SDS011;13689;48.590;7.752;2023-07-20T01:10:20;5.40;;;1.52;;
25870;SDS011;13689;48.590;7.752;2023-07-20T01:12:48;6.70;;;2.92;;
25870;SDS011;13689;48.590;7.752;2023-07-20T01:15:17;1.95;;;1.48;;
25870;SDS011;13689;48.590;7.752;2023-07-20T01:17:43;2.40;;;1.77;;
25870;SDS011;13689;48.590;7.752;2023-07-20T01:20:10;4.03;;;1.88;;
25870;SDS011;13689;48.590;7.752;2023-07-20T01:31:31;3.47;;;1.75;;
25870;SDS011;13689;48.590;7.752;2023-07-20T01:34:00;3.95;;;1.60;;
25870;SDS011;13689;48.590;7.752;2023-07-20T01:36:28;5.63;;;1.67;;
25870;SDS011;13689;48.590;7.752;2023-07-20T01:38:56;4.57;;;1.58;;
25870;SDS011;13689;48.590;7.752;2023-07-20T01:41:22;4.05;;;2.00;;
25870;SDS011;13689;48.590;7.752;2023-07-20T01:43:48;5.00;;;1.70;;
25870;SDS011;13689;48.590;7.752;2023-07-20T01:46:14;3.28;;;1.90;;
25870;SDS011;13689;48.590;7.752;2023-07-20T01:48:39;3.95;;;2.03;;
25870;SDS011;13689;48.590;7.752;2023-07-20T01:51:05;5.35;;;2.00;;
25870;SDS011;13689;48.590;7.752;2023-07-20T01:53:30;4.38;;;1.60;;
25870;SDS011;13689;48.590;7.752;2023-07-20T01:55:56;3.63;;;1.92;;
25870;SDS011;13689;48.590;7.752;2023-07-20T01:58:22;5.13;;;1.83;;
25870;SDS011;13689;48.590;7.752;2023-07-20T02:00:48;2.33;;;1.73;;
25870;SDS011;13689;48.590;7.752;2023-07-20T02:03:14;4.68;;;1.98;;
25870;SDS011;13689;48.590;7.752;2023-07-20T02:05:39;3.45;;;1.85;;
25870;SDS011;13689;48.590;7.752;2023-07-20T02:10:33;3.08;;;2.08;;
25870;SDS011;13689;48.590;7.752;2023-07-20T02:12:58;4.65;;;2.40;;
25870;SDS011;13689;48.590;7.752;2023-07-20T02:15:24;6.90;;;2.38;;
25870;SDS011;13689;48.590;7.752;2023-07-20T02:17:50;6.40;;;2.20;;
25870;SDS011;13689;48.590;7.752;2023-07-20T02:20:15;7.65;;;2.28;;
25870;SDS011;13689;48.590;7.752;2023-07-20T02:22:42;5.18;;;2.35;;
25870;SDS011;13689;48.590;7.752;2023-07-20T02:25:07;6.75;;;2.10;;
25870;SDS011;13689;48.590;7.752;2023-07-20T02:27:33;7.55;;;2.22;;
25870;SDS011;13689;48.590;7.752;2023-07-20T02:29:59;5.63;;;1.65;;
25870;SDS011;13689;48.590;7.752;2023-07-20T02:32:25;5.30;;;1.77;;
25870;SDS011;13689;48.590;7.752;2023-07-20T02:34:50;7.45;;;2.13;;
25870;SDS011;13689;48.590;7.752;2023-07-20T02:37:16;6.18;;;2.10;;
25870;SDS011;13689;48.590;7.752;2023-07-20T02:39:42;3.95;;;2.25;;
25870;SDS011;13689;48.590;7.752;2023-07-20T02:42:08;5.03;;;2.10;;
25870;SDS011;13689;48.590;7.752;2023-07-20T02:44:33;6.57;;;2.25;;
25870;SDS011;13689;48.590;7.752;2023-07-20T02:46:59;2.67;;;1.85;;
25870;SDS011;13689;48.590;7.752;2023-07-20T02:49:24;6.15;;;2.10;;
25870;SDS011;13689;48.590;7.752;2023-07-20T02:51:51;10.40;;;2.55;;
25870;SDS011;13689;48.590;7.752;2023-07-20T02:54:16;3.83;;;2.28;;
25870;SDS011;13689;48.590;7.752;2023-07-20T02:56:42;5.18;;;1.92;;
25870;SDS011;13689;48.590;7.752;2023-07-20T02:59:08;3.28;;;1.90;;
25870;SDS011;13689;48.590;7.752;2023-07-20T03:01:33;6.03;;;2.20;;
25870;SDS011;13689;48.590;7.752;2023-07-20T03:03:59;6.05;;;2.08;;
25870;SDS011;13689;48.590;7.752;2023-07-20T03:06:25;9.30;;;2.38;;
25870;SDS011;13689;48.590;7.752;2023-07-20T03:08:50;4.38;;;2.10;;
25870;SDS011;13689;48.590;7.752;2023-07-20T03:11:18;4.80;;;2.38;;
25870;SDS011;13689;48.590;7.752;2023-07-20T03:13:45;4.95;;;2.33;;
25870;SDS011;13689;48.590;7.752;2023-07-20T03:16:13;4.60;;;2.30;;
25870;SDS011;13689;48.590;7.752;2023-07-20T03:18:42;7.07;;;2.35;;
25870;SDS011;13689;48.590;7.752;2023-07-20T03:21:08;5.97;;;2.45;;
25870;SDS011;13689;48.590;7.752;2023-07-20T03:23:36;4.88;;;2.30;;
25870;SDS011;13689;48.590;7.752;2023-07-20T03:26:02;8.65;;;2.83;;
25870;SDS011;13689;48.590;7.752;2023-07-20T03:28:28;4.97;;;2.17;;
25870;SDS011;13689;48.590;7.752;2023-07-20T03:30:54;7.50;;;2.30;;
25870;SDS011;13689;48.590;7.752;2023-07-20T03:33:26;4.50;;;2.17;;
25870;SDS011;13689;48.590;7.752;2023-07-20T03:35:53;2.53;;;2.10;;
25870;SDS011;13689;48.590;7.752;2023-07-20T03:38:19;4.15;;;2.33;;
25870;SDS011;13689;48.590;7.752;2023-07-20T03:40:52;5.15;;;2.10;;
25870;SDS011;13689;48.590;7.752;2023-07-20T03:43:18;6.55;;;2.55;;
25870;SDS011;13689;48.590;7.752;2023-07-20T03:45:45;3.83;;;2.17;;
25870;SDS011;13689;48.590;7.752;2023-07-20T03:48:11;6.22;;;2.55;;
25870;SDS011;13689;48.590;7.752;2023-07-20T03:50:36;4.50;;;2.20;;
25870;SDS011;13689;48.590;7.752;2023-07-20T03:53:02;3.75;;;2.40;;
25870;SDS011;13689;48.590;7.752;2023-07-20T03:55:28;4.93;;;2.45;;
25870;SDS011;13689;48.590;7.752;2023-07-20T03:57:53;6.60;;;2.55;;
25870;SDS011;13689;48.590;7.752;2023-07-20T04:00:19;5.22;;;2.47;;
25870;SDS011;13689;48.590;7.752;2023-07-20T04:02:45;6.03;;;2.70;;
25870;SDS011;13689;48.590;7.752;2023-07-20T04:05:10;8.18;;;2.40;;
25870;SDS011;13689;48.590;7.752;2023-07-20T04:07:36;5.53;;;2.90;;
25870;SDS011;13689;48.590;7.752;2023-07-20T04:10:02;5.07;;;2.35;;
25870;SDS011;13689;48.590;7.752;2023-07-20T04:12:27;8.70;;;2.92;;
25870;SDS011;13689;48.590;7.752;2023-07-20T04:14:53;7.22;;;2.80;;
25870;SDS011;13689;48.590;7.752;2023-07-20T04:17:18;6.13;;;2.03;;
25870;SDS011;13689;48.590;7.752;2023-07-20T04:19:44;4.53;;;2.63;;
25870;SDS011;13689;48.590;7.752;2023-07-20T04:22:10;6.05;;;2.22;;
25870;SDS011;13689;48.590;7.752;2023-07-20T04:24:35;4.53;;;2.30;;
25870;SDS011;13689;48.590;7.752;2023-07-20T04:27:01;8.20;;;2.50;;
25870;SDS011;13689;48.590;7.752;2023-07-20T04:29:26;5.60;;;2.03;;
25870;SDS011;13689;48.590;7.752;2023-07-20T04:31:52;5.03;;;2.35;;
25870;SDS011;13689;48.590;7.752;2023-07-20T04:34:18;4.72;;;2.50;;
25870;SDS011;13689;48.590;7.752;2023-07-20T04:36:43;5.78;;;2.20;;
25870;SDS011;13689;48.590;7.752;2023-07-20T04:39:09;4.63;;;2.50;;
25870;SDS011;13689;48.590;7.752;2023-07-20T04:41:35;6.18;;;2.97;;
25870;SDS011;13689;48.590;7.752;2023-07-20T04:44:01;5.45;;;2.70;;
25870;SDS011;13689;48.590;7.752;2023-07-20T04:46:26;4.82;;;2.53;;
25870;SDS011;13689;48.590;7.752;2023-07-20T04:48:52;10.77;;;2.63;;
25870;SDS011;13689;48.590;7.752;2023-07-20T04:51:17;5.50;;;2.80;;
25870;SDS011;13689;48.590;7.752;2023-07-20T04:56:11;9.32;;;2.28;;
25870;SDS011;13689;48.590;7.752;2023-07-20T04:58:37;4.57;;;2.15;;
25870;SDS011;13689;48.590;7.752;2023-07-20T05:01:03;9.23;;;2.60;;
25870;SDS011;13689;48.590;7.752;2023-07-20T05:03:28;5.30;;;2.50;;
25870;SDS011;13689;48.590;7.752;2023-07-20T05:05:54;10.20;;;2.45;;
25870;SDS011;13689;48.590;7.752;2023-07-20T05:08:20;7.32;;;2.80;;
25870;SDS011;13689;48.590;7.752;2023-07-20T05:10:47;10.90;;;2.33;;
25870;SDS011;13689;48.590;7.752;2023-07-20T05:13:13;6.30;;;2.33;;
25870;SDS011;13689;48.590;7.752;2023-07-20T05:15:38;3.65;;;1.65;;
25870;SDS011;13689;48.590;7.752;2023-07-20T05:18:04;10.52;;;2.55;;
25870;SDS011;13689;48.590;7.752;2023-07-20T05:20:30;7.97;;;3.25;;
25870;SDS011;13689;48.590;7.752;2023-07-20T05:22:58;5.25;;;2.45;;
25870;SDS011;13689;48.590;7.752;2023-07-20T05:25:24;4.93;;;2.30;;
25870;SDS011;13689;48.590;7.752;2023-07-20T05:27:49;7.55;;;2.22;;
25870;SDS011;13689;48.590;7.752;2023-07-20T05:30:15;3.42;;;2.10;;
25870;SDS011;13689;48.590;7.752;2023-07-20T05:32:41;6.72;;;2.33;;
25870;SDS011;13689;48.590;7.752;2023-07-20T05:35:08;11.30;;;2.42;;
25870;SDS011;13689;48.590;7.752;2023-07-20T05:37:36;4.13;;;2.15;;
25870;SDS011;13689;48.590;7.752;2023-07-20T05:40:02;5.82;;;2.13;;
25870;SDS011;13689;48.590;7.752;2023-07-20T05:42:27;7.70;;;2.42;;
25870;SDS011;13689;48.590;7.752;2023-07-20T05:44:53;2.50;;;1.70;;
25870;SDS011;13689;48.590;7.752;2023-07-20T05:47:20;5.63;;;2.17;;
25870;SDS011;13689;48.590;7.752;2023-07-20T05:49:45;4.85;;;1.98;;
25870;SDS011;13689;48.590;7.752;2023-07-20T05:52:11;4.68;;;2.28;;
25870;SDS011;13689;48.590;7.752;2023-07-20T05:54:36;7.25;;;2.30;;
25870;SDS011;13689;48.590;7.752;2023-07-20T05:57:02;5.65;;;1.77;;
25870;SDS011;13689;48.590;7.752;2023-07-20T05:59:28;5.93;;;1.95;;
25870;SDS011;13689;48.590;7.752;2023-07-20T06:01:54;10.82;;;2.17;;
25870;SDS011;13689;48.590;7.752;2023-07-20T06:04:20;4.00;;;1.58;;
25870;SDS011;13689;48.590;7.752;2023-07-20T06:06:45;2.45;;;1.63;;
25870;SDS011;13689;48.590;7.752;2023-07-20T06:09:11;5.85;;;1.80;;
25870;SDS011;13689;48.590;7.752;2023-07-20T06:11:40;3.65;;;1.30;;
25870;SDS011;13689;48.590;7.752;2023-07-20T06:14:06;4.70;;;1.33;;
25870;SDS011;13689;48.590;7.752;2023-07-20T06:16:31;1.88;;;1.27;;
25870;SDS011;13689;48.590;7.752;2023-07-20T06:18:58;4.28;;;1.70;;
25870;SDS011;13689;48.590;7.752;2023-07-20T06:21:24;2.38;;;1.27;;
25870;SDS011;13689;48.590;7.752;2023-07-20T06:23:50;6.88;;;1.55;;
25870;SDS011;13689;48.590;7.752;2023-07-20T06:26:15;4.82;;;1.40;;
25870;SDS011;13689;48.590;7.752;2023-07-20T06:28:41;6.70;;;1.48;;
25870;SDS011;13689;48.590;7.752;2023-07-20T06:31:07;4.68;;;1.23;;
25870;SDS011;13689;48.590;7.752;2023-07-20T06:33:32;6.15;;;1.23;;
25870;SDS011;13689;48.590;7.752;2023-07-20T06:35:59;6.60;;;1.50;;
25870;SDS011;13689;48.590;7.752;2023-07-20T06:38:25;3.33;;;1.50;;
25870;SDS011;13689;48.590;7.752;2023-07-20T06:40:51;5.38;;;1.58;;
25870;SDS011;13689;48.590;7.752;2023-07-20T06:43:16;1.70;;;1.35;;
25870;SDS011;13689;48.590;7.752;2023-07-20T06:45:42;4.45;;;1.20;;
25870;SDS011;13689;48.590;7.752;2023-07-20T06:48:08;3.78;;;1.27;;
25870;SDS011;13689;48.590;7.752;2023-07-20T06:50:34;4.32;;;1.05;;
25870;SDS011;13689;48.590;7.752;2023-07-20T06:52:59;3.30;;;1.40;;
25870;SDS011;13689;48.590;7.752;2023-07-20T06:55:28;5.55;;;1.15;;
25870;SDS011;13689;48.590;7.752;2023-07-20T06:57:53;4.68;;;1.30;;
25870;SDS011;13689;48.590;7.752;2023-07-20T07:00:19;5.82;;;1.15;;
25870;SDS011;13689;48.590;7.752;2023-07-20T07:02:45;2.70;;;1.20;;
25870;SDS011;13689;48.590;7.752;2023-07-20T07:05:10;3.90;;;1.25;;
25870;SDS011;13689;48.590;7.752;2023-07-20T07:07:38;4.93;;;1.23;;
25870;SDS011;13689;48.590;7.752;2023-07-20T07:10:04;4.55;;;1.15;;
25870;SDS011;13689;48.590;7.752;2023-07-20T07:12:30;3.60;;;1.00;;
25870;SDS011;13689;48.590;7.752;2023-07-20T07:14:56;3.80;;;1.15;;
25870;SDS011;13689;48.590;7.752;2023-07-20T07:17:21;6.90;;;1.10;;
25870;SDS011;13689;48.590;7.752;2023-07-20T07:19:47;5.68;;;1.55;;
25870;SDS011;13689;48.590;7.752;2023-07-20T07:22:13;2.58;;;0.88;;
25870;SDS011;13689;48.590;7.752;2023-07-20T07:24:39;5.65;;;1.40;;
25870;SDS011;13689;48.590;7.752;2023-07-20T07:27:06;2.85;;;0.95;;
25870;SDS011;13689;48.590;7.752;2023-07-20T07:29:33;2.45;;;1.15;;
25870;SDS011;13689;48.590;7.752;2023-07-20T07:31:58;3.20;;;1.15;;
25870;SDS011;13689;48.590;7.752;2023-07-20T07:34:24;4.93;;;1.27;;
25870;SDS011;13689;48.590;7.752;2023-07-20T07:36:52;3.70;;;1.10;;
25870;SDS011;13689;48.590;7.752;2023-07-20T07:39:18;14.10;;;1.38;;
25870;SDS011;13689;48.590;7.752;2023-07-20T07:41:44;2.13;;;1.30;;
25870;SDS011;13689;48.590;7.752;2023-07-20T07:44:10;4.18;;;1.08;;
25870;SDS011;13689;48.590;7.752;2023-07-20T07:46:35;9.27;;;1.70;;
25870;SDS011;13689;48.590;7.752;2023-07-20T07:49:01;2.83;;;1.15;;
25870;SDS011;13689;48.590;7.752;2023-07-20T07:51:26;1.88;;;1.10;;
25870;SDS011;13689;48.590;7.752;2023-07-20T07:53:52;4.68;;;1.23;;
25870;SDS011;13689;48.590;7.752;2023-07-20T07:56:18;2.47;;;1.50;;
25870;SDS011;13689;48.590;7.752;2023-07-20T07:58:47;2.38;;;1.23;;
25870;SDS011;13689;48.590;7.752;2023-07-20T08:01:17;11.07;;;1.80;;
25870;SDS011;13689;48.590;7.752;2023-07-20T08:03:44;4.65;;;1.35;;
25870;SDS011;13689;48.590;7.752;2023-07-20T08:06:12;2.97;;;1.33;;
25870;SDS011;13689;48.590;7.752;2023-07-20T08:08:41;9.48;;;1.30;;
25870;SDS011;13689;48.590;7.752;2023-07-20T08:11:07;15.27;;;1.67;;
25870;SDS011;13689;48.590;7.752;2023-07-20T08:13:33;7.03;;;1.73;;
25870;SDS011;13689;48.590;7.752;2023-07-20T08:15:58;6.03;;;1.30;;
25870;SDS011;13689;48.590;7.752;2023-07-20T08:18:24;4.53;;;1.10;;
25870;SDS011;13689;48.590;7.752;2023-07-20T08:20:49;5.57;;;1.20;;
25870;SDS011;13689;48.590;7.752;2023-07-20T08:23:15;7.00;;;1.10;;
25870;SDS011;13689;48.590;7.752;2023-07-20T08:25:41;13.05;;;1.90;;
25870;SDS011;13689;48.590;7.752;2023-07-20T08:28:13;16.30;;;2.33;;
25870;SDS011;13689;48.590;7.752;2023-07-20T08:30:40;1.40;;;1.30;;
25870;SDS011;13689;48.590;7.752;2023-07-20T08:33:13;1.50;;;1.15;;
25870;SDS011;13689;48.590;7.752;2023-07-20T08:38:05;4.25;;;1.05;;
25870;SDS011;13689;48.590;7.752;2023-07-20T08:40:32;5.13;;;1.70;;
25870;SDS011;13689;48.590;7.752;2023-07-20T08:42:59;2.55;;;1.17;;
25870;SDS011;13689;48.590;7.752;2023-07-20T08:45:28;17.33;;;2.03;;
25870;SDS011;13689;48.590;7.752;2023-07-20T08:50:21;3.38;;;1.40;;
25870;SDS011;13689;48.590;7.752;2023-07-20T08:52:47;3.72;;;1.13;;
25870;SDS011;13689;48.590;7.752;2023-07-20T08:55:15;1.52;;;1.05;;
25870;SDS011;13689;48.590;7.752;2023-07-20T08:57:41;4.75;;;1.15;;
25870;SDS011;13689;48.590;7.752;2023-07-20T09:00:11;3.92;;;1.10;;
25870;SDS011;13689;48.590;7.752;2023-07-20T09:02:39;3.30;;;1.10;;
25870;SDS011;13689;48.590;7.752;2023-07-20T09:05:08;1.83;;;1.00;;
25870;SDS011;13689;48.590;7.752;2023-07-20T09:07:35;2.88;;;1.38;;
25870;SDS011;13689;48.590;7.752;2023-07-20T09:10:01;4.95;;;1.23;;
25870;SDS011;13689;48.590;7.752;2023-07-20T09:12:31;4.68;;;1.63;;
25870;SDS011;13689;48.590;7.752;2023-07-20T09:14:57;5.80;;;1.15;;
25870;SDS011;13689;48.590;7.752;2023-07-20T09:17:25;8.13;;;1.20;;
25870;SDS011;13689;48.590;7.752;2023-07-20T09:19:51;2.72;;;1.10;;
25870;SDS011;13689;48.590;7.752;2023-07-20T09:22:16;2.15;;;0.88;;
25870;SDS011;13689;48.590;7.752;2023-07-20T09:24:42;1.63;;;1.13;;
25870;SDS011;13689;48.590;7.752;2023-07-20T09:27:09;2.78;;;1.10;;
25870;SDS011;13689;48.590;7.752;2023-07-20T09:29:46;2.05;;;1.08;;
25870;SDS011;13689;48.590;7.752;2023-07-20T09:32:19;2.35;;;1.02;;
25870;SDS011;13689;48.590;7.752;2023-07-20T09:34:46;5.35;;;1.02;;
25870;SDS011;13689;48.590;7.752;2023-07-20T09:37:12;2.78;;;0.93;;
25870;SDS011;13689;48.590;7.752;2023-07-20T09:39:44;4.15;;;0.95;;
25870;SDS011;13689;48.590;7.752;2023-07-20T09:42:11;4.47;;;1.05;;
25870;SDS011;13689;48.590;7.752;2023-07-20T09:44:38;2.40;;;1.23;;
25870;SDS011;13689;48.590;7.752;2023-07-20T09:47:04;1.70;;;1.13;;
25870;SDS011;13689;48.590;7.752;2023-07-20T09:49:30;1.65;;;1.13;;
25870;SDS011;13689;48.590;7.752;2023-07-20T09:52:00;2.70;;;1.38;;
25870;SDS011;13689;48.590;7.752;2023-07-20T09:54:27;5.18;;;1.30;;
25870;SDS011;13689;48.590;7.752;2023-07-20T09:56:54;2.97;;;1.15;;
25870;SDS011;13689;48.590;7.752;2023-07-20T09:59:20;1.53;;;1.43;;
25870;SDS011;13689;48.590;7.752;2023-07-20T10:01:46;2.05;;;1.10;;
25870;SDS011;13689;48.590;7.752;2023-07-20T10:04:14;0.95;;;0.82;;
25870;SDS011;13689;48.590;7.752;2023-07-20T10:09:07;2.88;;;1.30;;
25870;SDS011;13689;48.590;7.752;2023-07-20T10:11:37;4.85;;;1.92;;
25870;SDS011;13689;48.590;7.752;2023-07-20T10:14:08;3.70;;;1.50;;
25870;SDS011;13689;48.590;7.752;2023-07-20T10:16:39;3.60;;;1.50;;
25870;SDS011;13689;48.590;7.752;2023-07-20T10:21:57;2.25;;;0.75;;
25870;SDS011;13689;48.590;7.752;2023-07-20T10:24:27;2.40;;;1.20;;
25870;SDS011;13689;48.590;7.752;2023-07-20T10:26:53;5.88;;;2.20;;
25870;SDS011;13689;48.590;7.752;2023-07-20T10:29:20;2.00;;;1.05;;
25870;SDS011;13689;48.590;7.752;2023-07-20T10:31:46;2.38;;;0.85;;
25870;SDS011;13689;48.590;7.752;2023-07-20T10:34:13;1.80;;;0.85;;
25870;SDS011;13689;48.590;7.752;2023-07-20T10:36:44;2.97;;;0.95;;
25870;SDS011;13689;48.590;7.752;2023-07-20T10:39:33;2.05;;;1.08;;
25870;SDS011;13689;48.590;7.752;2023-07-20T10:42:00;4.57;;;1.08;;
25870;SDS011;13689;48.590;7.752;2023-07-20T10:44:28;3.88;;;0.90;;
25870;SDS011;13689;48.590;7.752;2023-07-20T10:47:03;4.00;;;1.00;;
25870;SDS011;13689;48.590;7.752;2023-07-20T10:49:34;2.20;;;0.95;;
25870;SDS011;13689;48.590;7.752;2023-07-20T10:52:03;3.88;;;1.05;;
25870;SDS011;13689;48.590;7.752;2023-07-20T10:56:56;1.85;;;1.00;;
25870;SDS011;13689;48.590;7.752;2023-07-20T11:01:48;0.90;;;0.70;;
25870;SDS011;13689;48.590;7.752;2023-07-20T11:04:14;1.48;;;0.90;;
25870;SDS011;13689;48.590;7.752;2023-07-20T11:06:48;2.00;;;1.17;;
25870;SDS011;13689;48.590;7.752;2023-07-20T11:09:22;3.28;;;1.00;;
25870;SDS011;13689;48.590;7.752;2023-07-20T11:11:50;1.15;;;0.90;;
25870;SDS011;13689;48.590;7.752;2023-07-20T11:14:35;0.85;;;0.85;;
25870;SDS011;13689;48.590;7.752;2023-07-20T11:17:17;1.63;;;0.93;;
25870;SDS011;13689;48.590;7.752;2023-07-20T11:19:47;1.70;;;0.90;;
25870;SDS011;13689;48.590;7.752;2023-07-20T11:22:13;3.17;;;0.90;;
25870;SDS011;13689;48.590;7.752;2023-07-20T11:24:42;1.13;;;1.00;;
25870;SDS011;13689;48.590;7.752;2023-07-20T11:27:08;6.15;;;0.90;;
25870;SDS011;13689;48.590;7.752;2023-07-20T11:29:34;0.80;;;0.80;;
25870;SDS011;13689;48.590;7.752;2023-07-20T11:34:30;1.27;;;0.80;;
25870;SDS011;13689;48.590;7.752;2023-07-20T11:36:58;0.70;;;0.70;;
25870;SDS011;13689;48.590;7.752;2023-07-20T11:39:24;1.85;;;1.05;;
25870;SDS011;13689;48.590;7.752;2023-07-20T11:41:54;2.53;;;1.02;;
25870;SDS011;13689;48.590;7.752;2023-07-20T11:44:28;2.42;;;0.93;;
25870;SDS011;13689;48.590;7.752;2023-07-20T11:47:04;1.98;;;1.10;;
25870;SDS011;13689;48.590;7.752;2023-07-20T11:49:39;1.27;;;0.80;;
25870;SDS011;13689;48.590;7.752;2023-07-20T11:52:06;4.15;;;0.90;;
25870;SDS011;13689;48.590;7.752;2023-07-20T11:57:03;4.90;;;0.98;;
25870;SDS011;13689;48.590;7.752;2023-07-20T11:59:30;1.05;;;1.00;;
25870;SDS011;13689;48.590;7.752;2023-07-20T12:01:56;1.63;;;1.00;;
25870;SDS011;13689;48.590;7.752;2023-07-20T12:04:23;1.42;;;1.17;;
25870;SDS011;13689;48.590;7.752;2023-07-20T12:06:49;4.93;;;1.20;;
25870;SDS011;13689;48.590;7.752;2023-07-20T12:09:15;2.50;;;0.93;;
25870;SDS011;13689;48.590;7.752;2023-07-20T12:14:09;3.20;;;0.80;;
25870;SDS011;13689;48.590;7.752;2023-07-20T12:16:36;5.90;;;1.08;;
25870;SDS011;13689;48.590;7.752;2023-07-20T12:19:09;1.15;;;0.80;;
25870;SDS011;13689;48.590;7.752;2023-07-20T12:21:39;1.35;;;0.90;;
25870;SDS011;13689;48.590;7.752;2023-07-20T12:24:07;3.10;;;0.90;;
25870;SDS011;13689;48.590;7.752;2023-07-20T12:26:36;2.03;;;1.13;;
25870;SDS011;13689;48.590;7.752;2023-07-20T12:29:02;2.38;;;0.70;;
25870;SDS011;13689;48.590;7.752;2023-07-20T12:31:28;5.85;;;0.90;;
25870;SDS011;13689;48.590;7.752;2023-07-20T12:33:56;3.20;;;1.00;;
25870;SDS011;13689;48.590;7.752;2023-07-20T12:36:24;1.65;;;0.90;;
25870;SDS011;13689;48.590;7.752;2023-07-20T12:38:50;2.97;;;1.05;;
25870;SDS011;13689;48.590;7.752;2023-07-20T12:41:17;1.35;;;1.15;;
25870;SDS011;13689;48.590;7.752;2023-07-20T12:43:45;1.55;;;0.65;;
25870;SDS011;13689;48.590;7.752;2023-07-20T12:46:12;2.60;;;1.52;;
25870;SDS011;13689;48.590;7.752;2023-07-20T12:48:38;2.92;;;0.82;;
25870;SDS011;13689;48.590;7.752;2023-07-20T12:51:06;2.78;;;1.00;;
25870;SDS011;13689;48.590;7.752;2023-07-20T12:53:32;1.27;;;0.73;;
25870;SDS011;13689;48.590;7.752;2023-07-20T12:55:58;1.90;;;0.90;;
25870;SDS011;13689;48.590;7.752;2023-07-20T12:58:25;2.45;;;0.90;;
25870;SDS011;13689;48.590;7.752;2023-07-20T13:00:50;4.47;;;0.80;;
25870;SDS011;13689;48.590;7.752;2023-07-20T13:03:16;2.10;;;0.95;;
25870;SDS011;13689;48.590;7.752;2023-07-20T13:05:43;2.70;;;0.85;;
25870;SDS011;13689;48.590;7.752;2023-07-20T13:08:09;3.58;;;0.73;;
25870;SDS011;13689;48.590;7.752;2023-07-20T13:10:35;2.35;;;0.98;;
25870;SDS011;13689;48.590;7.752;2023-07-20T13:13:01;3.33;;;0.80;;
25870;SDS011;13689;48.590;7.752;2023-07-20T13:15:30;1.10;;;0.98;;
25870;SDS011;13689;48.590;7.752;2023-07-20T13:17:57;1.65;;;1.00;;
25870;SDS011;13689;48.590;7.752;2023-07-20T13:20:23;2.05;;;1.10;;
25870;SDS011;13689;48.590;7.752;2023-07-20T13:22:49;1.70;;;1.00;;
25870;SDS011;13689;48.590;7.752;2023-07-20T13:25:16;4.03;;;1.38;;
25870;SDS011;13689;48.590;7.752;2023-07-20T13:27:41;2.60;;;1.00;;
25870;SDS011;13689;48.590;7.752;2023-07-20T13:30:07;1.42;;;1.10;;
25870;SDS011;13689;48.590;7.752;2023-07-20T13:35:01;2.03;;;1.00;;
25870;SDS011;13689;48.590;7.752;2023-07-20T13:37:26;2.60;;;0.90;;
25870;SDS011;13689;48.590;7.752;2023-07-20T13:39:53;2.17;;;1.00;;
25870;SDS011;13689;48.590;7.752;2023-07-20T13:42:19;2.42;;;0.98;;
25870;SDS011;13689;48.590;7.752;2023-07-20T13:44:46;0.98;;;0.90;;
25870;SDS011;13689;48.590;7.752;2023-07-20T13:47:12;3.72;;;0.90;;
25870;SDS011;13689;48.590;7.752;2023-07-20T13:49:38;7.47;;;0.73;;
25870;SDS011;13689;48.590;7.752;2023-07-20T13:52:04;3.03;;;0.90;;
25870;SDS011;13689;48.590;7.752;2023-07-20T13:54:30;1.77;;;1.00;;
25870;SDS011;13689;48.590;7.752;2023-07-20T13:56:55;1.88;;;0.93;;
25870;SDS011;13689;48.590;7.752;2023-07-20T13:59:21;2.30;;;0.80;;
25870;SDS011;13689;48.590;7.752;2023-07-20T14:01:48;1.70;;;0.90;;
25870;SDS011;13689;48.590;7.752;2023-07-20T14:04:14;2.00;;;0.90;;
25870;SDS011;13689;48.590;7.752;2023-07-20T14:06:39;1.88;;;0.93;;
25870;SDS011;13689;48.590;7.752;2023-07-20T14:09:05;0.88;;;0.80;;
25870;SDS011;13689;48.590;7.752;2023-07-20T14:11:31;0.82;;;0.77;;
25870;SDS011;13689;48.590;7.752;2023-07-20T14:13:57;2.13;;;1.00;;
25870;SDS011;13689;48.590;7.752;2023-07-20T14:16:23;1.50;;;0.90;;
25870;SDS011;13689;48.590;7.752;2023-07-20T14:18:49;2.30;;;1.00;;
25870;SDS011;13689;48.590;7.752;2023-07-20T14:21:15;1.83;;;0.90;;
25870;SDS011;13689;48.590;7.752;2023-07-20T14:23:41;2.78;;;1.45;;
25870;SDS011;13689;48.590;7.752;2023-07-20T14:26:09;3.55;;;0.93;;
25870;SDS011;13689;48.590;7.752;2023-07-20T14:28:35;5.05;;;0.95;;
25870;SDS011;13689;48.590;7.752;2023-07-20T14:31:01;4.30;;;0.98;;
25870;SDS011;13689;48.590;7.752;2023-07-20T14:33:26;3.15;;;1.08;;
25870;SDS011;13689;48.590;7.752;2023-07-20T14:35:52;2.97;;;1.00;;
25870;SDS011;13689;48.590;7.752;2023-07-20T14:38:17;3.53;;;0.90;;
25870;SDS011;13689;48.590;7.752;2023-07-20T14:40:43;2.08;;;1.00;;
25870;SDS011;13689;48.590;7.752;2023-07-20T14:43:09;2.00;;;1.10;;
25870;SDS011;13689;48.590;7.752;2023-07-20T14:45:35;1.52;;;1.02;;
25870;SDS011;13689;48.590;7.752;2023-07-20T14:50:28;4.28;;;0.90;;
25870;SDS011;13689;48.590;7.752;2023-07-20T14:52:54;2.00;;;1.00;;
25870;SDS011;13689;48.590;7.752;2023-07-20T14:55:19;4.40;;;0.85;;
25870;SDS011;13689;48.590;7.752;2023-07-20T14:57:45;5.35;;;0.90;;
25870;SDS011;13689;48.590;7.752;2023-07-20T15:00:11;1.05;;;0.77;;
25870;SDS011;13689;48.590;7.752;2023-07-20T15:02:37;1.33;;;0.90;;
25870;SDS011;13689;48.590;7.752;2023-07-20T15:05:06;1.55;;;1.08;;
25870;SDS011;13689;48.590;7.752;2023-07-20T15:07:33;6.68;;;1.17;;
25870;SDS011;13689;48.590;7.752;2023-07-20T15:09:59;1.60;;;0.85;;
25870;SDS011;13689;48.590;7.752;2023-07-20T15:12:25;1.55;;;0.90;;
25870;SDS011;13689;48.590;7.752;2023-07-20T15:17:30;3.15;;;1.00;;
25870;SDS011;13689;48.590;7.752;2023-07-20T15:19:56;1.98;;;0.80;;
25870;SDS011;13689;48.590;7.752;2023-07-20T15:22:21;1.42;;;0.88;;
25870;SDS011;13689;48.590;7.752;2023-07-20T15:24:47;1.52;;;0.90;;
25870;SDS011;13689;48.590;7.752;2023-07-20T15:27:12;3.45;;;0.88;;
25870;SDS011;13689;48.590;7.752;2023-07-20T15:29:38;3.05;;;1.05;;